TIB1023 SBFN-SBRJ
Flight info
| Callsign | TIB1023 |
|---|---|
| Flight time | N/A |
| Altitude | 32000 |
| Route | TOMEK DCT AMBET UN857 AKNUT/N0473F340 UN857 MOLSU/N0466F350 DCT MCA |
| Aircraft | E75L/M-SDE3GILORVW/S |
Departure
| Time | 2026-05-08 12:09 |
|---|---|
| Airport | Fernando de Noronha Airport (SBFN) |
Arrival
| Time | N/A |
|---|---|
| Airport | Santos Dumont Airport (SBRJ) |
| Time | Latitude | Longitude | Altitude | Speed | Heading |
|---|---|---|---|---|---|
| 2026-05-08 11:40 | -3.85594 | -32.42856 | 182 ft | 0 kts | 184° |
| 2026-05-08 12:01 | -3.85592 | -32.42856 | 182 ft | 2 kts | 184° |
| 2026-05-08 12:01 | -3.85577 | -32.42855 | 182 ft | 2 kts | 184° |
| 2026-05-08 12:01 | -3.85562 | -32.42851 | 182 ft | 2 kts | 213° |
| 2026-05-08 12:01 | -3.85553 | -32.42840 | 181 ft | 2 kts | 247° |
| 2026-05-08 12:02 | -3.85550 | -32.42828 | 181 ft | 1 kts | 274° |
| 2026-05-08 12:02 | -3.85550 | -32.42826 | 181 ft | 0 kts | 274° |
| 2026-05-08 12:05 | -3.85550 | -32.42831 | 181 ft | 1 kts | 274° |
| 2026-05-08 12:05 | -3.85549 | -32.42844 | 181 ft | 2 kts | 275° |
| 2026-05-08 12:05 | -3.85548 | -32.42866 | 182 ft | 3 kts | 273° |
| 2026-05-08 12:06 | -3.85545 | -32.42897 | 183 ft | 5 kts | 281° |
| 2026-05-08 12:06 | -3.85508 | -32.42936 | 185 ft | 8 kts | 326° |
| 2026-05-08 12:06 | -3.85458 | -32.42968 | 186 ft | 8 kts | 326° |
| 2026-05-08 12:06 | -3.85404 | -32.43012 | 188 ft | 11 kts | 308° |
| 2026-05-08 12:07 | -3.85408 | -32.43087 | 191 ft | 9 kts | 236° |
| 2026-05-08 12:07 | -3.85406 | -32.43126 | 193 ft | 5 kts | 348° |
| 2026-05-08 12:07 | -3.85387 | -32.43089 | 191 ft | 8 kts | 96° |
| 2026-05-08 12:07 | -3.85390 | -32.43066 | 190 ft | 0 kts | 96° |
| 2026-05-08 12:08 | -3.85391 | -32.43047 | 189 ft | 11 kts | 95° |
| 2026-05-08 12:08 | -3.85416 | -32.42713 | 179 ft | 81 kts | 97° |
| 2026-05-08 12:08 | -3.85474 | -32.41966 | 195 ft | 131 kts | 94° |
| 2026-05-08 12:08 | -3.85552 | -32.41069 | 683 ft | 121 kts | 98° |
| 2026-05-08 12:09 | -3.85912 | -32.40266 | 865 ft | 145 kts | 138° |
| 2026-05-08 12:09 | -3.86922 | -32.39904 | 1044 ft | 173 kts | 179° |
| 2026-05-08 12:09 | -3.88284 | -32.40133 | 1037 ft | 215 kts | 188° |
| 2026-05-08 12:09 | -3.89799 | -32.40424 | 1535 ft | 226 kts | 187° |
| 2026-05-08 12:10 | -3.91368 | -32.40705 | 2187 ft | 229 kts | 186° |
| 2026-05-08 12:10 | -3.92904 | -32.40970 | 2961 ft | 224 kts | 185° |
| 2026-05-08 12:10 | -3.94433 | -32.41227 | 3648 ft | 223 kts | 185° |
| 2026-05-08 12:10 | -3.95940 | -32.41478 | 4263 ft | 210 kts | 185° |
| 2026-05-08 12:11 | -3.97325 | -32.41708 | 4287 ft | 196 kts | 184° |
| 2026-05-08 12:11 | -3.98642 | -32.41924 | 4324 ft | 195 kts | 184° |
| 2026-05-08 12:11 | -4.00044 | -32.42150 | 4519 ft | 210 kts | 184° |
| 2026-05-08 12:11 | -4.01553 | -32.42396 | 4707 ft | 226 kts | 185° |
| 2026-05-08 12:12 | -4.03173 | -32.42661 | 4893 ft | 242 kts | 185° |
| 2026-05-08 12:12 | -4.04910 | -32.42945 | 5074 ft | 258 kts | 186° |
| 2026-05-08 12:12 | -4.06736 | -32.43243 | 5260 ft | 273 kts | 186° |
| 2026-05-08 12:12 | -4.08666 | -32.43560 | 5583 ft | 281 kts | 186° |
| 2026-05-08 12:13 | -4.10613 | -32.43880 | 6013 ft | 284 kts | 186° |
| 2026-05-08 12:13 | -4.12574 | -32.44201 | 6508 ft | 285 kts | 186° |
| 2026-05-08 12:13 | -4.14535 | -32.44522 | 6985 ft | 287 kts | 186° |
| 2026-05-08 12:13 | -4.16528 | -32.44848 | 7451 ft | 289 kts | 186° |
| 2026-05-08 12:14 | -4.18522 | -32.45174 | 7914 ft | 291 kts | 186° |
| 2026-05-08 12:14 | -4.20532 | -32.45502 | 8366 ft | 294 kts | 186° |
| 2026-05-08 12:14 | -4.22570 | -32.45836 | 8827 ft | 296 kts | 186° |
| 2026-05-08 12:14 | -4.24603 | -32.46169 | 9298 ft | 297 kts | 186° |
| 2026-05-08 12:15 | -4.26658 | -32.46505 | 9751 ft | 300 kts | 186° |
| 2026-05-08 12:15 | -4.28742 | -32.46846 | 10208 ft | 302 kts | 186° |
| 2026-05-08 12:15 | -4.30847 | -32.47190 | 10607 ft | 307 kts | 186° |
| 2026-05-08 12:15 | -4.32971 | -32.47537 | 10983 ft | 312 kts | 186° |
| 2026-05-08 12:16 | -4.35145 | -32.47893 | 11335 ft | 319 kts | 186° |
| 2026-05-08 12:16 | -4.37374 | -32.48258 | 11676 ft | 325 kts | 186° |
| 2026-05-08 12:16 | -4.39645 | -32.48631 | 12035 ft | 331 kts | 188° |
| 2026-05-08 12:16 | -4.41792 | -32.49531 | 12368 ft | 343 kts | 216° |
| 2026-05-08 12:17 | -4.43337 | -32.51351 | 12768 ft | 350 kts | 242° |
| 2026-05-08 12:17 | -4.44389 | -32.53579 | 13246 ft | 352 kts | 244° |
| 2026-05-08 12:17 | -4.45435 | -32.55801 | 13703 ft | 354 kts | 244° |
| 2026-05-08 12:17 | -4.46488 | -32.58019 | 14220 ft | 353 kts | 244° |
| 2026-05-08 12:18 | -4.47552 | -32.60252 | 14681 ft | 355 kts | 244° |
| 2026-05-08 12:18 | -4.48618 | -32.62489 | 15146 ft | 356 kts | 244° |
| 2026-05-08 12:18 | -4.49683 | -32.64723 | 15571 ft | 357 kts | 245° |
| 2026-05-08 12:18 | -4.50756 | -32.66972 | 15935 ft | 360 kts | 245° |
| 2026-05-08 12:19 | -4.51838 | -32.69243 | 16339 ft | 362 kts | 245° |
| 2026-05-08 12:19 | -4.52920 | -32.71513 | 16731 ft | 363 kts | 245° |
| 2026-05-08 12:19 | -4.54012 | -32.73803 | 17123 ft | 364 kts | 245° |
| 2026-05-08 12:19 | -4.55116 | -32.76118 | 17492 ft | 365 kts | 246° |
| 2026-05-08 12:20 | -4.56208 | -32.78411 | 17841 ft | 367 kts | 246° |
| 2026-05-08 12:20 | -4.57306 | -32.80714 | 18166 ft | 369 kts | 246° |
| 2026-05-08 12:20 | -4.58424 | -32.83052 | 18467 ft | 372 kts | 244° |
| 2026-05-08 12:20 | -4.60029 | -32.85098 | 18703 ft | 379 kts | 219° |
| 2026-05-08 12:21 | -4.62314 | -32.86460 | 18989 ft | 382 kts | 207° |
| 2026-05-08 12:21 | -4.64719 | -32.87671 | 19273 ft | 385 kts | 207° |
| 2026-05-08 12:21 | -4.67110 | -32.88871 | 19600 ft | 386 kts | 207° |
| 2026-05-08 12:21 | -4.69549 | -32.90094 | 19915 ft | 387 kts | 207° |
| 2026-05-08 12:22 | -4.71940 | -32.91293 | 20221 ft | 389 kts | 207° |
| 2026-05-08 12:22 | -4.74394 | -32.92522 | 20506 ft | 390 kts | 208° |
| 2026-05-08 12:22 | -4.76840 | -32.93748 | 20770 ft | 393 kts | 208° |
| 2026-05-08 12:22 | -4.79298 | -32.94981 | 21034 ft | 394 kts | 208° |
| 2026-05-08 12:23 | -4.81764 | -32.96217 | 21248 ft | 397 kts | 208° |
| 2026-05-08 12:23 | -4.84253 | -32.97464 | 21481 ft | 399 kts | 208° |
| 2026-05-08 12:23 | -4.86748 | -32.98715 | 21713 ft | 401 kts | 208° |
| 2026-05-08 12:23 | -4.89278 | -32.99984 | 21954 ft | 403 kts | 208° |
| 2026-05-08 12:24 | -4.91789 | -33.01243 | 22156 ft | 405 kts | 208° |
| 2026-05-08 12:24 | -4.94319 | -33.02512 | 22359 ft | 408 kts | 208° |
| 2026-05-08 12:24 | -4.96871 | -33.03792 | 22629 ft | 409 kts | 208° |
| 2026-05-08 12:24 | -4.99421 | -33.05071 | 22898 ft | 409 kts | 208° |
| 2026-05-08 12:25 | -5.01971 | -33.06350 | 23147 ft | 410 kts | 208° |
| 2026-05-08 12:25 | -5.04547 | -33.07643 | 23409 ft | 411 kts | 208° |
| 2026-05-08 12:25 | -5.07099 | -33.08923 | 23658 ft | 412 kts | 208° |
| 2026-05-08 12:25 | -5.09661 | -33.10208 | 23892 ft | 413 kts | 208° |
| 2026-05-08 12:26 | -5.12259 | -33.11512 | 24133 ft | 414 kts | 208° |
| 2026-05-08 12:26 | -5.14852 | -33.12813 | 24349 ft | 414 kts | 208° |
| 2026-05-08 12:26 | -5.17420 | -33.14102 | 24537 ft | 416 kts | 208° |
| 2026-05-08 12:26 | -5.20051 | -33.15422 | 24735 ft | 417 kts | 208° |
| 2026-05-08 12:27 | -5.22631 | -33.16717 | 24914 ft | 418 kts | 208° |
| 2026-05-08 12:27 | -5.25237 | -33.18026 | 25078 ft | 420 kts | 208° |
| 2026-05-08 12:27 | -5.27884 | -33.19355 | 25260 ft | 421 kts | 208° |
| 2026-05-08 12:27 | -5.30480 | -33.20658 | 25447 ft | 421 kts | 208° |
| 2026-05-08 12:28 | -5.33133 | -33.21991 | 25632 ft | 422 kts | 208° |
| 2026-05-08 12:28 | -5.35783 | -33.23322 | 25828 ft | 424 kts | 208° |
| 2026-05-08 12:28 | -5.38389 | -33.24630 | 26059 ft | 423 kts | 208° |
| 2026-05-08 12:28 | -5.41041 | -33.25962 | 26275 ft | 424 kts | 208° |
| 2026-05-08 12:29 | -5.43679 | -33.27288 | 26466 ft | 424 kts | 208° |
| 2026-05-08 12:29 | -5.46347 | -33.28628 | 26649 ft | 425 kts | 208° |
| 2026-05-08 12:29 | -5.48984 | -33.29953 | 26821 ft | 426 kts | 208° |
| 2026-05-08 12:29 | -5.51636 | -33.31285 | 26980 ft | 427 kts | 208° |
| 2026-05-08 12:30 | -5.54341 | -33.32645 | 27153 ft | 428 kts | 208° |
| 2026-05-08 12:30 | -5.56987 | -33.33975 | 27319 ft | 429 kts | 208° |
| 2026-05-08 12:30 | -5.59692 | -33.35335 | 27493 ft | 429 kts | 208° |
| 2026-05-08 12:30 | -5.62349 | -33.36670 | 27644 ft | 430 kts | 208° |
| 2026-05-08 12:31 | -5.65030 | -33.38018 | 27810 ft | 430 kts | 208° |
| 2026-05-08 12:31 | -5.67709 | -33.39365 | 27935 ft | 432 kts | 208° |
| 2026-05-08 12:31 | -5.70427 | -33.40733 | 28077 ft | 433 kts | 208° |
| 2026-05-08 12:31 | -5.73142 | -33.42097 | 28229 ft | 434 kts | 208° |
| 2026-05-08 12:32 | -5.75832 | -33.43451 | 28398 ft | 434 kts | 208° |
| 2026-05-08 12:32 | -5.78519 | -33.44802 | 28568 ft | 434 kts | 208° |
| 2026-05-08 12:32 | -5.81235 | -33.46169 | 28757 ft | 433 kts | 208° |
| 2026-05-08 12:32 | -5.83946 | -33.47533 | 28904 ft | 433 kts | 209° |
| 2026-05-08 12:33 | -5.89366 | -33.50261 | 29058 ft | 436 kts | 209° |
| 2026-05-08 12:33 | -5.94809 | -33.53000 | 29240 ft | 438 kts | 208° |
| 2026-05-08 12:34 | -6.00302 | -33.55765 | 29452 ft | 440 kts | 209° |
| 2026-05-08 12:34 | -6.03041 | -33.57145 | 29574 ft | 440 kts | 208° |
| 2026-05-08 12:34 | -6.05769 | -33.58518 | 29664 ft | 440 kts | 209° |
| 2026-05-08 12:35 | -6.11254 | -33.61281 | 29813 ft | 443 kts | 209° |
| 2026-05-08 12:35 | -6.14049 | -33.62689 | 29930 ft | 444 kts | 209° |
| 2026-05-08 12:35 | -6.16816 | -33.64084 | 30038 ft | 444 kts | 209° |
| 2026-05-08 12:36 | -6.19568 | -33.65470 | 30162 ft | 443 kts | 209° |
| 2026-05-08 12:36 | -6.22302 | -33.66848 | 30253 ft | 444 kts | 209° |
| 2026-05-08 12:36 | -6.27853 | -33.69646 | 30382 ft | 446 kts | 209° |
| 2026-05-08 12:37 | -6.33423 | -33.72454 | 30568 ft | 446 kts | 209° |
| 2026-05-08 12:37 | -6.36228 | -33.73868 | 30687 ft | 446 kts | 209° |
| 2026-05-08 12:37 | -6.38992 | -33.75262 | 30811 ft | 445 kts | 209° |
| 2026-05-08 12:38 | -6.41765 | -33.76660 | 30928 ft | 446 kts | 209° |
| 2026-05-08 12:38 | -6.44529 | -33.78054 | 31045 ft | 446 kts | 210° |
| 2026-05-08 12:38 | -6.47313 | -33.79459 | 31159 ft | 446 kts | 209° |
| 2026-05-08 12:38 | -6.50116 | -33.80874 | 31271 ft | 446 kts | 209° |
| 2026-05-08 12:39 | -6.52893 | -33.82275 | 31384 ft | 446 kts | 209° |
| 2026-05-08 12:39 | -6.55660 | -33.83672 | 31490 ft | 446 kts | 209° |
| 2026-05-08 12:39 | -6.58459 | -33.85084 | 31603 ft | 446 kts | 209° |
| 2026-05-08 12:39 | -6.61220 | -33.86478 | 31711 ft | 446 kts | 210° |
| 2026-05-08 12:40 | -6.63989 | -33.87876 | 31850 ft | 445 kts | 209° |
| 2026-05-08 12:40 | -6.66767 | -33.89278 | 32019 ft | 443 kts | 209° |
| 2026-05-08 12:40 | -6.69514 | -33.90665 | 32180 ft | 433 kts | 210° |
| 2026-05-08 12:40 | -6.72186 | -33.92015 | 32240 ft | 423 kts | 210° |
| 2026-05-08 12:41 | -6.74836 | -33.93354 | 32371 ft | 423 kts | 209° |
| 2026-05-08 12:41 | -6.77449 | -33.94680 | 32409 ft | 415 kts | 209° |
| 2026-05-08 12:41 | -6.80035 | -33.95989 | 31758 ft | 412 kts | 210° |
| 2026-05-08 12:41 | -6.82589 | -33.97274 | 32094 ft | 403 kts | 210° |
| 2026-05-08 12:42 | -6.85038 | -33.98508 | 32827 ft | 380 kts | 210° |
| 2026-05-08 12:42 | -6.87359 | -33.99681 | 32849 ft | 362 kts | 210° |
| 2026-05-08 12:42 | -6.89556 | -34.00811 | 32468 ft | 355 kts | 212° |
| 2026-05-08 12:42 | -6.91739 | -34.02023 | 31806 ft | 360 kts | 211° |
| 2026-05-08 12:43 | -6.94089 | -34.03150 | 31355 ft | 378 kts | 208° |
| 2026-05-08 12:43 | -6.96493 | -34.04323 | 31097 ft | 389 kts | 209° |
| 2026-05-08 12:43 | -7.01446 | -34.06808 | 31012 ft | 400 kts | 210° |
| 2026-05-08 12:44 | -7.06462 | -34.09343 | 31247 ft | 401 kts | 210° |
| 2026-05-08 12:44 | -7.08961 | -34.10607 | 31379 ft | 402 kts | 210° |
| 2026-05-08 12:44 | -7.11488 | -34.11886 | 31512 ft | 402 kts | 210° |
| 2026-05-08 12:45 | -7.14019 | -34.13166 | 31643 ft | 402 kts | 210° |
| 2026-05-08 12:45 | -7.16510 | -34.14427 | 31861 ft | 400 kts | 210° |
| 2026-05-08 12:45 | -7.18994 | -34.15684 | 32037 ft | 399 kts | 210° |
| 2026-05-08 12:45 | -7.21496 | -34.16952 | 32001 ft | 404 kts | 210° |
| 2026-05-08 12:46 | -7.24048 | -34.18243 | 32115 ft | 404 kts | 210° |
| 2026-05-08 12:46 | -7.26583 | -34.19527 | 32254 ft | 404 kts | 210° |
| 2026-05-08 12:46 | -7.29089 | -34.20796 | 32451 ft | 402 kts | 210° |
| 2026-05-08 12:46 | -7.31593 | -34.22063 | 32638 ft | 390 kts | 211° |
| 2026-05-08 12:47 | -7.33976 | -34.23269 | 32602 ft | 372 kts | 211° |
| 2026-05-08 12:47 | -7.36246 | -34.24419 | 32379 ft | 359 kts | 211° |
| 2026-05-08 12:47 | -7.38449 | -34.25536 | 32090 ft | 349 kts | 211° |
| 2026-05-08 12:47 | -7.40609 | -34.26630 | 31889 ft | 335 kts | 211° |
| 2026-05-08 12:48 | -7.42637 | -34.27657 | 31829 ft | 318 kts | 211° |
| 2026-05-08 12:48 | -7.44579 | -34.28641 | 31727 ft | 303 kts | 212° |
| 2026-05-08 12:48 | -7.46422 | -34.29575 | 31632 ft | 287 kts | 212° |
| 2026-05-08 12:48 | -7.48184 | -34.30470 | 31517 ft | 283 kts | 212° |
| 2026-05-08 12:49 | -7.49962 | -34.31373 | 31527 ft | 286 kts | 212° |
| 2026-05-08 12:49 | -7.51757 | -34.32283 | 31547 ft | 288 kts | 212° |
| 2026-05-08 12:49 | -7.53567 | -34.33202 | 31570 ft | 291 kts | 212° |
| 2026-05-08 12:49 | -7.55407 | -34.34135 | 31586 ft | 294 kts | 212° |
| 2026-05-08 12:50 | -7.57245 | -34.35068 | 31606 ft | 297 kts | 212° |
| 2026-05-08 12:50 | -7.59107 | -34.36012 | 31621 ft | 301 kts | 212° |
| 2026-05-08 12:50 | -7.62928 | -34.37951 | 31655 ft | 308 kts | 212° |
| 2026-05-08 12:51 | -7.68777 | -34.40919 | 31705 ft | 319 kts | 212° |
| 2026-05-08 12:52 | -7.72808 | -34.42965 | 31746 ft | 327 kts | 212° |
| 2026-05-08 12:52 | -7.79017 | -34.46214 | 31797 ft | 339 kts | 213° |
| 2026-05-08 12:53 | -7.83232 | -34.48492 | 31833 ft | 347 kts | 213° |
| 2026-05-08 12:53 | -7.87544 | -34.50821 | 31860 ft | 355 kts | 213° |
| 2026-05-08 12:54 | -7.91959 | -34.53207 | 31895 ft | 364 kts | 213° |
| 2026-05-08 12:54 | -7.96526 | -34.55675 | 31921 ft | 373 kts | 213° |
| 2026-05-08 12:55 | -8.01167 | -34.58184 | 31929 ft | 382 kts | 212° |